createdAt,value
2023-02-24T00:02:32.866Z,7.95
2023-02-24T00:05:58.273Z,7.94
2023-02-24T00:09:30.254Z,7.93
2023-02-24T00:13:30.968Z,7.92
2023-02-24T00:17:40.370Z,7.91
2023-02-24T00:21:12.359Z,7.94
2023-02-24T00:24:40.281Z,7.91
2023-02-24T00:28:15.139Z,7.94
2023-02-24T00:31:50.499Z,7.93
2023-02-24T00:35:23.732Z,7.93
2023-02-24T00:38:47.321Z,7.92
2023-02-24T00:42:26.236Z,7.92
2023-02-24T00:46:38.584Z,7.93
2023-02-24T00:50:31.333Z,7.93
2023-02-24T00:54:01.571Z,7.95
2023-02-24T00:57:42.086Z,7.95
2023-02-24T01:01:14.395Z,7.95
2023-02-24T01:05:07.028Z,7.95
2023-02-24T01:08:59.270Z,7.96
2023-02-24T01:12:59.673Z,7.97
2023-02-24T01:16:28.735Z,7.98
2023-02-24T01:20:14.186Z,7.98
2023-02-24T01:23:35.783Z,8.00
2023-02-24T01:27:00.458Z,7.97
2023-02-24T01:30:23.791Z,7.96
2023-02-24T01:33:49.417Z,7.91
2023-02-24T01:37:03.818Z,7.88
2023-02-24T01:40:40.623Z,7.90
2023-02-24T01:44:34.026Z,7.86
2023-02-24T01:48:00.228Z,7.88
2023-02-24T01:51:52.576Z,7.89
2023-02-24T01:55:47.097Z,7.92
2023-02-24T01:58:48.135Z,7.92
2023-02-24T02:01:58.614Z,7.93
2023-02-24T02:05:16.780Z,7.92
2023-02-24T02:08:59.747Z,7.95
2023-02-24T02:13:01.835Z,7.98
2023-02-24T02:17:06.221Z,7.96
2023-02-24T02:21:11.313Z,7.98
2023-02-24T02:24:52.374Z,7.99
2023-02-24T02:27:58.291Z,8.00
2023-02-24T02:31:42.248Z,8.01
2023-02-24T02:35:38.341Z,7.99
2023-02-24T02:39:28.331Z,7.97
2023-02-24T02:43:05.966Z,7.94
2023-02-24T02:46:23.978Z,7.94
2023-02-24T02:50:19.323Z,7.95
2023-02-24T02:54:18.977Z,7.97
2023-02-24T02:57:53.614Z,7.98
2023-02-24T03:01:16.594Z,7.97
2023-02-24T03:04:15.305Z,7.95
2023-02-24T03:07:49.977Z,7.94
2023-02-24T03:11:14.198Z,7.96
2023-02-24T03:14:57.776Z,8.01
2023-02-24T03:18:24.650Z,8.02
2023-02-24T03:22:12.284Z,8.04
2023-02-24T03:24:46.850Z,8.06
2023-02-24T03:28:20.274Z,8.04
2023-02-24T03:32:07.062Z,8.02
2023-02-24T03:35:58.928Z,8.02
2023-02-24T03:39:51.478Z,7.99
2023-02-24T03:43:16.850Z,8.00
2023-02-24T03:46:39.957Z,8.02
2023-02-24T03:49:37.653Z,8.03
2023-02-24T03:53:52.958Z,8.05
2023-02-24T03:58:03.677Z,8.04
2023-02-24T04:01:55.548Z,8.04
2023-02-24T04:05:57.133Z,8.03
2023-02-24T04:09:31.333Z,8.02
2023-02-24T04:13:36.715Z,8.01
2023-02-24T04:17:28.569Z,8.02
2023-02-24T04:21:14.326Z,8.04
2023-02-24T04:25:06.892Z,8.06
2023-02-24T04:28:44.939Z,8.06
2023-02-24T04:32:46.072Z,8.04
2023-02-24T04:36:55.644Z,8.02
2023-02-24T04:41:01.770Z,8.00
2023-02-24T04:44:51.433Z,8.00
2023-02-24T04:48:26.862Z,7.98
2023-02-24T04:51:55.862Z,7.98
2023-02-24T04:56:05.426Z,7.95
2023-02-24T05:00:07.582Z,7.94
2023-02-24T05:03:59.745Z,7.96
2023-02-24T05:06:57.571Z,7.99
2023-02-24T05:09:42.327Z,8.00
2023-02-24T05:13:20.045Z,7.99
2023-02-24T05:17:13.255Z,7.95
2023-02-24T05:20:39.890Z,7.93
2023-02-24T05:24:29.654Z,7.95
2023-02-24T05:27:30.174Z,7.97
2023-02-24T05:30:56.053Z,7.98
2023-02-24T05:34:54.919Z,7.96
2023-02-24T05:38:19.777Z,7.93
2023-02-24T05:42:22.566Z,7.86
2023-02-24T05:46:27.075Z,7.84
2023-02-24T05:49:39.781Z,7.80
2023-02-24T05:52:56.031Z,7.71
2023-02-24T05:55:58.778Z,7.67
2023-02-24T05:59:33.660Z,7.64
2023-02-24T06:02:51.037Z,7.62
2023-02-24T06:06:42.833Z,7.59
2023-02-24T06:10:35.114Z,7.55
2023-02-24T06:14:23.266Z,7.53
2023-02-24T06:17:41.356Z,7.50
2023-02-24T06:21:43.880Z,7.49
2023-02-24T06:25:24.786Z,7.48
2023-02-24T06:29:25.061Z,7.49
2023-02-24T06:32:26.666Z,7.46
2023-02-24T06:35:15.902Z,7.42
2023-02-24T06:38:49.190Z,7.40
2023-02-24T06:42:23.985Z,7.37
2023-02-24T06:46:33.436Z,7.32
2023-02-24T06:50:32.898Z,7.21
2023-02-24T06:54:36.340Z,7.13
2023-02-24T06:57:50.575Z,6.99
2023-02-24T07:01:08.942Z,6.94
2023-02-24T07:04:58.474Z,6.79
2023-02-24T07:08:32.862Z,6.68
2023-02-24T07:12:05.115Z,6.58
2023-02-24T07:16:11.147Z,6.43
2023-02-24T07:19:47.834Z,6.28
2023-02-24T07:23:58.565Z,6.19
2023-02-24T07:28:14.505Z,6.12
2023-02-24T07:32:24.335Z,6.03
2023-02-24T07:36:08.596Z,5.98
2023-02-24T07:40:07.361Z,5.96
2023-02-24T07:44:19.577Z,5.94
2023-02-24T07:48:29.674Z,5.93
2023-02-24T07:52:31.567Z,5.87
2023-02-24T07:56:01.219Z,5.79
2023-02-24T07:59:59.669Z,5.75
2023-02-24T08:03:49.925Z,5.74
2023-02-24T08:07:58.638Z,5.71
2023-02-24T08:12:01.447Z,5.63
2023-02-24T08:15:36.144Z,5.58
2023-02-24T08:19:38.963Z,5.52
2023-02-24T08:23:23.798Z,5.50
2023-02-24T08:27:33.651Z,5.56
2023-02-24T08:31:28.503Z,5.64
2023-02-24T08:35:31.099Z,5.70
2023-02-24T08:39:40.496Z,5.73
2023-02-24T08:43:55.684Z,5.79
2023-02-24T08:48:05.404Z,5.88
2023-02-24T08:51:29.213Z,5.57
2023-02-24T08:55:21.553Z,5.27
2023-02-24T08:59:35.336Z,5.06
2023-02-24T09:03:49.362Z,4.90
2023-02-24T09:07:22.092Z,4.78
2023-02-24T09:11:10.301Z,4.71
2023-02-24T09:15:03.300Z,4.65
2023-02-24T09:19:11.106Z,4.57
2023-02-24T09:23:23.591Z,4.52
2023-02-24T09:27:31.977Z,4.52
2023-02-24T09:31:15.940Z,4.53
2023-02-24T09:35:23.969Z,4.53
2023-02-24T09:39:15.145Z,4.54
2023-02-24T09:42:47.293Z,4.54
2023-02-24T09:45:47.207Z,4.56
2023-02-24T09:49:30.403Z,4.57
2023-02-24T09:53:41.590Z,4.60
2023-02-24T09:57:43.738Z,4.63
2023-02-24T10:01:15.992Z,4.66
2023-02-24T10:05:03.344Z,4.68
2023-02-24T10:08:43.479Z,4.84
2023-02-24T10:12:55.506Z,5.33
2023-02-24T10:16:45.511Z,5.70
2023-02-24T10:20:38.102Z,5.96
2023-02-24T10:24:21.404Z,6.14
2023-02-24T10:28:33.375Z,6.31
2023-02-24T10:32:47.328Z,6.23
2023-02-24T10:36:51.698Z,5.85
2023-02-24T10:41:04.320Z,5.58
2023-02-24T10:45:03.372Z,5.40
2023-02-24T10:49:21.983Z,5.29
2023-02-24T10:53:54.960Z,5.18
2023-02-24T10:57:58.984Z,5.14
2023-02-24T11:01:44.665Z,5.11
2023-02-24T11:05:57.173Z,5.11
2023-02-24T11:10:10.425Z,5.10
2023-02-24T11:14:06.292Z,5.23
2023-02-24T11:18:11.242Z,5.63
2023-02-24T11:22:20.962Z,5.99
2023-02-24T11:26:07.105Z,6.21
2023-02-24T11:30:19.066Z,6.37
2023-02-24T11:33:46.232Z,6.52
2023-02-24T11:37:56.010Z,6.64
2023-02-24T11:42:07.199Z,6.74
2023-02-24T11:45:42.852Z,6.60
2023-02-24T11:49:14.843Z,6.29
2023-02-24T11:53:16.028Z,5.95
2023-02-24T11:56:09.344Z,5.78
2023-02-24T11:59:58.273Z,5.66
2023-02-24T12:03:51.291Z,5.56
2023-02-24T12:07:40.585Z,5.46
2023-02-24T12:11:23.876Z,5.39
2023-02-24T12:15:06.620Z,5.35
2023-02-24T12:19:06.588Z,5.34
2023-02-24T12:22:34.799Z,5.33
2023-02-24T12:27:05.852Z,5.32
2023-02-24T12:31:13.676Z,5.32
2023-02-24T12:35:16.563Z,5.30
2023-02-24T12:39:31.761Z,5.28
2023-02-24T12:42:43.305Z,5.28
2023-02-24T12:46:16.952Z,5.27
2023-02-24T12:50:00.632Z,5.25
2023-02-24T12:53:43.779Z,5.26
2023-02-24T12:58:03.711Z,5.28
2023-02-24T13:02:17.626Z,5.31
2023-02-24T13:06:03.069Z,5.32
2023-02-24T13:10:01.390Z,5.34
2023-02-24T13:13:47.102Z,5.33
2023-02-24T13:17:45.066Z,5.34
2023-02-24T13:22:10.372Z,5.32
2023-02-24T13:25:59.832Z,5.31
2023-02-24T13:29:40.910Z,5.30
2023-02-24T13:33:44.951Z,5.27
2023-02-24T13:37:39.564Z,5.27
2023-02-24T13:41:46.575Z,5.27
2023-02-24T13:45:41.860Z,5.30
2023-02-24T13:49:27.254Z,5.35
2023-02-24T13:53:10.471Z,5.37
2023-02-24T13:56:57.188Z,5.39
2023-02-24T14:00:25.396Z,5.40
2023-02-24T14:04:27.304Z,5.39
2023-02-24T14:08:38.044Z,5.40
2023-02-24T14:12:09.347Z,5.41
2023-02-24T14:16:19.037Z,5.41
2023-02-24T14:20:18.730Z,5.41
2023-02-24T14:24:02.386Z,5.38
2023-02-24T14:28:14.555Z,5.36
2023-02-24T14:31:52.169Z,5.34
2023-02-24T14:35:48.299Z,5.32
2023-02-24T14:39:30.468Z,5.30
2023-02-24T14:43:06.421Z,5.28
2023-02-24T14:46:55.340Z,5.26
2023-02-24T14:50:53.883Z,5.25
2023-02-24T14:55:03.709Z,5.22
2023-02-24T14:59:13.967Z,5.22
2023-02-24T15:02:44.160Z,5.20
2023-02-24T15:06:04.057Z,5.18
2023-02-24T15:09:38.566Z,5.16
2023-02-24T15:13:38.194Z,5.15
2023-02-24T15:17:50.533Z,5.14
2023-02-24T15:22:01.437Z,5.15
2023-02-24T15:26:23.106Z,5.15
2023-02-24T15:30:01.314Z,5.15
2023-02-24T15:34:16.539Z,5.14
2023-02-24T15:37:28.601Z,5.12
2023-02-24T15:40:58.579Z,5.11
2023-02-24T15:45:05.911Z,5.10
2023-02-24T15:49:17.365Z,5.06
2023-02-24T15:53:26.565Z,5.00
2023-02-24T15:57:10.215Z,4.96
2023-02-24T16:00:59.915Z,4.92
2023-02-24T16:05:09.671Z,4.89
2023-02-24T16:09:00.869Z,4.88
2023-02-24T16:12:41.178Z,4.87
2023-02-24T16:16:43.694Z,4.85
2023-02-24T16:20:35.763Z,4.99
2023-02-24T16:24:46.190Z,5.43
2023-02-24T16:28:46.711Z,5.72
2023-02-24T16:32:53.304Z,5.91
2023-02-24T16:37:03.267Z,6.05
2023-02-24T16:40:40.761Z,6.16
2023-02-24T16:44:50.395Z,6.25
2023-02-24T16:48:18.422Z,6.30
2023-02-24T16:51:48.913Z,6.33
2023-02-24T16:54:59.428Z,6.35
2023-02-24T16:58:52.814Z,6.38
2023-02-24T17:03:05.223Z,6.37
2023-02-24T17:06:42.795Z,6.35
2023-02-24T17:09:51.717Z,6.30
2023-02-24T17:13:02.320Z,6.29
2023-02-24T17:21:21.273Z,6.26
2023-02-24T17:25:08.236Z,6.25
2023-02-24T17:28:57.664Z,6.25
2023-02-24T17:33:07.106Z,6.24
2023-02-24T17:37:13.162Z,6.25
2023-02-24T17:41:11.723Z,6.27
2023-02-24T17:44:56.387Z,6.28
2023-02-24T17:48:55.899Z,6.28
2023-02-24T17:53:05.668Z,6.28
2023-02-24T17:56:57.941Z,6.27
2023-02-24T18:00:52.964Z,6.27
2023-02-24T18:05:02.592Z,6.23
2023-02-24T18:09:00.480Z,6.20
2023-02-24T18:12:49.905Z,6.19
2023-02-24T18:16:59.516Z,6.21
2023-02-24T18:20:44.471Z,6.17
2023-02-24T18:24:29.471Z,6.16
2023-02-24T18:28:31.507Z,6.11
2023-02-24T18:32:41.425Z,6.10
2023-02-24T18:36:04.875Z,6.10
2023-02-24T18:40:08.721Z,6.08
2023-02-24T18:44:18.072Z,6.07
2023-02-24T18:48:20.607Z,6.10
2023-02-24T18:52:18.652Z,6.06
2023-02-24T18:56:07.935Z,6.04
2023-02-24T19:00:12.094Z,6.00
2023-02-24T19:04:11.406Z,5.99
2023-02-24T19:08:13.888Z,5.98
2023-02-24T19:12:14.155Z,5.96
2023-02-24T19:16:23.956Z,5.97
2023-02-24T19:20:16.625Z,5.94
2023-02-24T19:23:50.508Z,5.91
2023-02-24T19:28:00.609Z,5.86
2023-02-24T19:32:10.207Z,5.79
2023-02-24T19:36:18.407Z,5.72
2023-02-24T19:40:28.016Z,5.67
2023-02-24T19:44:00.780Z,5.63
2023-02-24T19:48:10.198Z,5.59
2023-02-24T19:51:56.865Z,5.55
2023-02-24T19:55:39.617Z,5.52
2023-02-24T19:59:32.311Z,5.48
2023-02-24T20:03:40.256Z,5.44
2023-02-24T20:07:50.095Z,5.40
2023-02-24T20:11:59.563Z,5.35
2023-02-24T20:15:40.467Z,5.29
2023-02-24T20:19:43.024Z,5.27
2023-02-24T20:23:55.387Z,5.26
2023-02-24T20:28:04.938Z,5.26
2023-02-24T20:32:14.869Z,5.30
2023-02-24T20:36:24.892Z,5.32
2023-02-24T20:40:07.400Z,5.37
2023-02-24T20:43:58.519Z,5.41
2023-02-24T20:47:53.434Z,5.43
2023-02-24T20:51:44.491Z,5.41
2023-02-24T20:55:54.149Z,5.41
2023-02-24T21:00:02.549Z,5.41
2023-02-24T21:04:13.140Z,5.42
2023-02-24T21:08:22.670Z,5.45
2023-02-24T21:12:36.487Z,5.47
2023-02-24T21:16:28.241Z,5.51
2023-02-24T21:20:27.874Z,5.59
2023-02-24T21:24:33.313Z,5.62
2023-02-24T21:28:43.171Z,5.66
2023-02-24T21:32:52.714Z,5.69
2023-02-24T21:36:51.015Z,5.75
2023-02-24T21:41:00.668Z,5.79
2023-02-24T21:45:02.957Z,5.81
2023-02-24T21:49:12.532Z,5.83
2023-02-24T21:53:21.200Z,5.85
2023-02-24T21:57:30.683Z,5.88
2023-02-24T22:01:40.269Z,5.92
2023-02-24T22:05:49.805Z,5.94
2023-02-24T22:09:35.120Z,5.96
2023-02-24T22:13:37.171Z,5.99
2023-02-24T22:17:37.985Z,6.00
2023-02-24T22:21:45.549Z,6.04
2023-02-24T22:25:43.997Z,6.10
2023-02-24T22:29:53.431Z,6.13
2023-02-24T22:34:03.050Z,6.16
2023-02-24T22:38:12.523Z,6.18
2023-02-24T22:42:22.289Z,6.21
2023-02-24T22:46:37.513Z,6.24
2023-02-24T22:50:47.294Z,6.26
2023-02-24T22:54:56.519Z,6.26
2023-02-24T22:59:05.933Z,6.28
2023-02-24T23:02:48.550Z,6.30
2023-02-24T23:06:40.011Z,6.31
2023-02-24T23:10:49.895Z,6.33
2023-02-24T23:14:59.556Z,6.35
2023-02-24T23:18:52.079Z,6.36
2023-02-24T23:23:01.668Z,6.38
2023-02-24T23:27:03.888Z,6.38
2023-02-24T23:31:03.304Z,6.38
2023-02-24T23:35:05.646Z,6.39
2023-02-24T23:39:05.153Z,6.37
2023-02-24T23:42:54.368Z,6.37
2023-02-24T23:47:04.108Z,6.35
2023-02-24T23:51:12.412Z,6.30
2023-02-24T23:55:02.125Z,6.27
2023-02-24T23:59:11.539Z,6.25
